• Join FlightAware (Why Join?)
  • Login
  • US Flag 
04:54AM EDT


 

Airport Tracker/Info


-or-


 

Live Flight TrackerFlight Track Log ✈ CAL222 ✈ 08-Feb-2014 ✈ RCSS / TSA - RJTT / HND

Flight Track Log - Related Links

Times and Time Zones

All times are in EST time to prevent confusion due to time zone crossing. See the CAL222 flight status page for this flight to view local times or setup timezone preferences in your user account.

Time Position Orientation Groundspeed Altitude Reporting Facility
EST Latitude Longitude Course Direction KTS MPH feet Rate Location/Type
09:50AM 25.3311 121.9221 52° Northeast  Level Estimated
09:51AM 25.4181 122.0460 52° Northeast  Level Estimated
09:52AM 25.5051 122.1700 52° Northeast  Level Estimated
09:53AM 25.5919 122.2942 52° Northeast  Level Estimated
09:54AM 25.6786 122.4186 52° Northeast  Level Estimated
09:55AM 25.7652 122.5431 52° Northeast  Level Estimated
09:56AM 25.8517 122.6679 52° Northeast  Level Estimated
09:57AM 25.9381 122.7928 52° Northeast  Level Estimated
09:58AM 26.0244 122.9179 52° Northeast  Level Estimated
09:59AM 26.1105 123.0432 53° Northeast  Level Estimated
10:00AM 26.1966 123.1687 53° Northeast  Level Estimated
10:01AM 26.2826 123.2943 53° Northeast  Level Estimated
10:02AM 26.3684 123.4202 53° Northeast  Level Estimated
10:03AM 26.4542 123.5462 53° Northeast  Level Estimated
10:04AM 26.5398 123.6724 53° Northeast  Level Estimated
10:05AM 26.6253 123.7989 53° Northeast  Level Estimated
10:06AM 26.7107 123.9255 53° Northeast  Level Estimated
10:07AM 26.7960 124.0523 53° Northeast  Level Estimated
10:08AM 26.8812 124.1792 53° Northeast  Level Estimated
10:09AM 26.9662 124.3064 53° Northeast  Level Estimated
10:10AM 27.0512 124.4338 53° Northeast  Level Estimated
10:11AM 27.1360 124.5613 53° Northeast  Level Estimated
10:12AM 27.2208 124.6891 53° Northeast  Level Estimated
10:13AM 27.3054 124.8170 53° Northeast  Level Estimated
10:14AM 27.3899 124.9452 53° Northeast  Level Estimated
10:15AM 27.4742 125.0735 53° Northeast  Level Estimated
10:16AM 27.5585 125.2020 54° Northeast  Level Estimated
10:17AM 27.6426 125.3308 54° Northeast  Level Estimated
10:18AM 27.7266 125.4597 54° Northeast  Level Estimated
10:19AM 27.8105 125.5888 54° Northeast  Level Estimated
10:20AM 27.8943 125.7182 54° Northeast  Level Estimated
10:21AM 27.9779 125.8477 54° Northeast  Level Estimated
10:22AM 28.0615 125.9774 54° Northeast  Level Estimated
10:23AM 28.1449 126.1074 54° Northeast  Level Estimated
10:24AM 28.2282 126.2375 54° Northeast  Level Estimated
10:25AM 28.3113 126.3678 54° Northeast  Level Estimated
10:26AM 28.3944 126.4984 54° Northeast  Level Estimated
10:27AM 28.4773 126.6291 54° Northeast  Level Estimated
10:28AM 28.5601 126.7600 54° Northeast  Level Estimated
10:29AM 28.6428 126.8912 54° Northeast  Level Estimated
10:30AM 28.7253 127.0226 54° Northeast  Level Estimated
10:31AM 28.8077 127.1541 54° Northeast  Level Estimated
10:32AM 28.8900 127.2859 54° Northeast  Level Estimated
10:33AM 28.9722 127.4179 55° Northeast  Level Estimated
10:34AM 29.0542 127.5501 55° Northeast  Level Estimated
10:35AM 29.1361 127.6825 55° Northeast  Level Estimated
10:36AM 29.2178 127.8151 55° Northeast  Level Estimated
10:37AM 29.2995 127.9480 55° Northeast  Level Estimated
10:38AM 29.3810 128.0810 55° Northeast  Level Estimated
10:39AM 29.4624 128.2143 55° Northeast  Level Estimated
10:40AM 29.5436 128.3477 55° Northeast  Level Estimated
10:41AM 29.6247 128.4814 55° Northeast  Level Estimated
10:42AM 29.7057 128.6153 55° Northeast  Level Estimated
10:43AM 29.7865 128.7494 55° Northeast  Level Estimated
10:44AM 29.8672 128.8837 55° Northeast  Level Estimated
10:45AM 29.9478 129.0183 55° Northeast  Level Estimated
10:46AM 30.0282 129.1531 55° Northeast  Level Estimated
10:47AM 30.1085 129.2881 55° Northeast  Level Estimated
10:48AM 30.1886 129.4232 56° Northeast  Level Estimated
10:49AM 30.2687 129.5587 56° Northeast  Level Estimated
10:50AM 30.3485 129.6943 56° Northeast  Level Estimated
10:51AM 30.4282 129.8302 56° Northeast  Level Estimated
10:52AM 30.5078 129.9663 56° Northeast  Level Estimated
10:53AM 30.5873 130.1026 56° Northeast  Level Estimated
10:54AM 30.6666 130.2391 56° Northeast  Level Estimated
10:55AM 30.7458 130.3759 56° Northeast  Level Estimated
10:56AM 30.8248 130.5128 56° Northeast  Level Estimated
10:57AM 30.9037 130.6501 56° Northeast  Level Estimated
10:58AM 30.9824 130.7875 56° Northeast  Level Estimated
10:59AM 31.0610 130.9252 56° Northeast  Level Estimated
11:00AM 31.1394 131.0630 56° Northeast  Level Estimated
11:01AM 31.2177 131.2012 56° Northeast  Level Estimated
11:02AM 31.2959 131.3395 57° Northeast  Level Estimated
11:03AM 31.3738 131.4781 57° Northeast  Level Estimated
11:04AM 31.4517 131.6169 57° Northeast  Level Estimated
11:05AM 31.5294 131.7559 57° Northeast  Level Estimated
11:06AM 31.6070 131.8952 57° Northeast  Level Estimated
11:07AM 31.6843 132.0347 57° Northeast  Level Estimated
11:08AM 31.7616 132.1744 57° Northeast  Level Estimated
11:09AM 31.8387 132.3144 57° Northeast  Level Estimated
11:10AM 31.9156 132.4546 57° Northeast  Level Estimated
11:11AM 31.9924 132.5950 57° Northeast  Level Estimated
11:12AM 32.0690 132.7357 57° Northeast  Level Estimated
11:13AM 32.1455 132.8766 57° Northeast  Level Estimated
11:14AM 32.2218 133.0177 57° Northeast  Level Estimated
11:15AM 32.2980 133.1591 57° Northeast  Level Estimated
11:16AM 32.3740 133.3008 58° Northeast  Level Estimated
11:17AM 32.4498 133.4426 58° Northeast  Level Estimated
11:18AM 32.5255 133.5847 58° Northeast  Level Estimated
11:19AM 32.6010 133.7270 58° Northeast  Level Estimated
11:20AM 32.6764 133.8696 58° Northeast  Level Estimated
11:21AM 32.7516 134.0124 58° Northeast  Level Estimated
11:22AM 32.8266 134.1555 58° Northeast  Level Estimated
11:23AM 32.9015 134.2987 58° Northeast  Level Estimated
11:24AM 32.9762 134.4423 58° Northeast  Level Estimated
11:25AM 33.0508 134.5861 58° Northeast  Level Estimated
11:26AM 33.1251 134.7301 58° Northeast  Level Estimated
11:27AM 33.1993 134.8743 58° Northeast  Level Estimated
11:28AM 33.2734 135.0189 58° Northeast  Level Estimated
11:29AM 33.3473 135.1636 59° Northeast  Level Estimated
11:30AM 33.4210 135.3086 59° Northeast  Level Estimated
11:31AM 33.4945 135.4539 59° Northeast  Level Estimated
11:32AM 33.5679 135.5994 59° Northeast  Level Estimated
11:33AM 33.6411 135.7451 59° Northeast  Level Estimated
11:34AM 33.7141 135.8911 59° Northeast  Level Estimated
11:35AM 33.7870 136.0373 59° Northeast  Level Estimated
11:36AM 33.8597 136.1838 59° Northeast  Level Estimated
11:37AM 33.9322 136.3306 59° Northeast  Level Estimated
11:38AM 34.0045 136.4776 59° Northeast  Level Estimated
11:39AM 34.0767 136.6248 59° Northeast  Level Estimated
11:40AM 34.1487 136.7723 59° Northeast  Level Estimated
11:41AM 34.2205 136.9200 60° Northeast  Level Estimated
11:42AM 34.2921 137.0680 60° Northeast  Level Estimated
11:43AM 34.3636 137.2162 60° Northeast  Level Estimated
11:44AM 34.4349 137.3647 60° Northeast  Level Estimated
11:45AM 34.5060 137.5135 60° Northeast  Level Estimated
11:46AM 34.5769 137.6625 60° Northeast  Level Estimated
11:47AM 34.6476 137.8118 60° Northeast  Level Estimated
11:48AM 34.7182 137.9613 60° Northeast  Level Estimated
11:49AM 34.7886 138.1110 60° Northeast  Level Estimated
11:50AM 34.8587 138.2610 60° Northeast  Level Estimated
11:51AM 34.9287 138.4113 60° Northeast  Level Estimated
11:52AM 34.9986 138.5619 60° Northeast  Level Estimated
11:53AM 35.0682 138.7126 61° Northeast  Level Estimated
11:54AM 35.1376 138.8637 61° Northeast  Level Estimated
11:55AM 35.2069 139.0150 61° Northeast  Level Estimated
11:56AM 35.2760 139.1666 61° Northeast  Level Estimated
11:57AM 35.3448 139.3184 61° Northeast  Level Estimated
11:58AM 35.4135 139.4705 61° Northeast  Level Estimated
11:59AM 35.4820 139.6228 61° Northeast  Level Estimated
12:00PM 35.5503 139.7754 61° Northeast  Level Estimated
12:01PM 35.5523 139.7797 61° Northeast  Level Estimated
12:02PM 35.5523 139.7797 122° Southeast  Level Estimated
12:03PM 35.5523 139.7797 122° Southeast  Level Estimated
12:04PM 35.5523 139.7797 122° Southeast  Level Estimated
12:05PM 35.5523 139.7797 122° Southeast  Level Estimated
12:06PM 35.5523 139.7797 122° Southeast  Level Estimated
12:07PM 35.5523 139.7797 122° Southeast  Level Estimated
12:08PM 35.5523 139.7797 122° Southeast  Level Estimated
12:09PM 35.5523 139.7797 122° Southeast  Level Estimated
12:10PM 35.5523 139.7797 122° Southeast  Level Estimated
12:11PM 35.5523 139.7797 122° Southeast  Level Estimated
12:12PM 35.5523 139.7797 122° Southeast  Level Estimated
12:13PM 35.5523 139.7797 122° Southeast  Level Estimated
12:14PM 35.5523 139.7797 122° Southeast  Level Estimated
12:15PM 35.5523 139.7797 122° Southeast  Level Estimated
12:16PM 35.5523 139.7797 122° Southeast  Level Estimated